createdAt,value
2022-12-19T00:00:41.427Z,1002.24
2022-12-19T00:01:41.517Z,1002.29
2022-12-19T00:02:41.571Z,1002.20
2022-12-19T00:03:41.454Z,1002.23
2022-12-19T00:04:41.395Z,1002.22
2022-12-19T00:05:41.379Z,1002.19
2022-12-19T00:06:43.729Z,1002.17
2022-12-19T00:07:41.370Z,1002.20
2022-12-19T00:08:41.370Z,1002.21
2022-12-19T00:09:41.364Z,1002.18
2022-12-19T00:10:41.342Z,1002.15
2022-12-19T00:11:41.350Z,1002.22
2022-12-19T00:12:41.331Z,1002.20
2022-12-19T00:13:41.467Z,1002.24
2022-12-19T00:14:42.314Z,1002.31
2022-12-19T00:15:41.315Z,1002.29
2022-12-19T00:16:41.355Z,1002.33
2022-12-19T00:17:41.300Z,1002.29
2022-12-19T00:18:41.288Z,1002.32
2022-12-19T00:19:41.295Z,1002.24
2022-12-19T00:20:41.281Z,1002.22
2022-12-19T00:21:41.255Z,1002.24
2022-12-19T00:22:43.319Z,1002.24
2022-12-19T00:23:41.247Z,1002.17
2022-12-19T00:24:41.254Z,1002.15
2022-12-19T00:25:41.230Z,1002.16
2022-12-19T00:27:40.753Z,1002.11
2022-12-19T00:28:40.758Z,1002.05
2022-12-19T00:29:40.753Z,1002.07
2022-12-19T00:30:41.833Z,1002.01
2022-12-19T00:31:41.954Z,1002.03
2022-12-19T00:32:41.812Z,1002.02
2022-12-19T00:33:43.659Z,1002.00
2022-12-19T00:34:41.804Z,1001.96
2022-12-19T00:35:41.800Z,1001.99
2022-12-19T00:36:41.793Z,1001.98
2022-12-19T00:37:49.428Z,1001.99
2022-12-19T00:38:42.867Z,1002.02
2022-12-19T00:39:41.776Z,1001.97
2022-12-19T00:40:41.768Z,1001.94
2022-12-19T00:41:42.570Z,1001.98
2022-12-19T00:42:41.743Z,1001.90
2022-12-19T00:43:41.739Z,1001.91
2022-12-19T00:44:41.722Z,1001.84
2022-12-19T00:45:41.798Z,1001.85
2022-12-19T00:46:41.718Z,1001.84
2022-12-19T00:47:41.762Z,1001.81
2022-12-19T00:48:41.710Z,1001.73
2022-12-19T00:49:41.691Z,1001.75
2022-12-19T00:50:42.152Z,1001.78
2022-12-19T00:51:41.675Z,1001.76
2022-12-19T00:52:41.666Z,1001.81
2022-12-19T00:53:41.753Z,1001.83
2022-12-19T00:54:41.987Z,1001.83
2022-12-19T00:55:41.624Z,1001.78
2022-12-19T00:56:41.639Z,1001.81
2022-12-19T00:57:41.639Z,1001.77
2022-12-19T00:58:46.547Z,1001.84
2022-12-19T00:59:43.602Z,1001.85
2022-12-19T01:00:42.287Z,1001.74
2022-12-19T01:01:42.049Z,1001.83
2022-12-19T01:02:41.660Z,1001.77
2022-12-19T01:03:52.914Z,1001.74
2022-12-19T01:04:43.558Z,1001.73
2022-12-19T01:05:42.184Z,1001.67
2022-12-19T01:06:41.561Z,1001.68
2022-12-19T01:07:41.555Z,1001.72
2022-12-19T01:08:41.534Z,1001.77
2022-12-19T01:09:41.531Z,1001.78
2022-12-19T01:10:41.609Z,1001.79
2022-12-19T01:11:42.120Z,1001.82
2022-12-19T01:12:41.527Z,1001.87
2022-12-19T01:13:41.514Z,1001.81
2022-12-19T01:14:41.488Z,1001.80
2022-12-19T01:15:41.480Z,1001.90
2022-12-19T01:16:41.527Z,1001.91
2022-12-19T01:17:44.254Z,1001.93
2022-12-19T01:18:41.709Z,1002.00
2022-12-19T01:19:44.531Z,1001.96
2022-12-19T01:20:42.456Z,1001.93
2022-12-19T01:21:41.467Z,1001.95
2022-12-19T01:22:41.440Z,1001.88
2022-12-19T01:23:42.197Z,1001.96
2022-12-19T01:24:41.426Z,1001.92
2022-12-19T01:25:43.141Z,1001.89
2022-12-19T01:26:47.285Z,1001.87
2022-12-19T01:27:42.498Z,1001.88
2022-12-19T01:28:42.198Z,1001.91
2022-12-19T01:29:51.760Z,1001.91
2022-12-19T01:30:42.386Z,1001.94
2022-12-19T01:31:41.398Z,1001.86
2022-12-19T01:32:41.370Z,1001.85
2022-12-19T01:33:41.359Z,1001.84
2022-12-19T01:34:41.354Z,1001.93
2022-12-19T01:35:41.346Z,1001.83
2022-12-19T01:36:41.329Z,1001.91
2022-12-19T01:37:41.326Z,1001.88
2022-12-19T01:38:41.310Z,1001.87
2022-12-19T01:39:41.305Z,1001.79
2022-12-19T01:40:41.298Z,1001.86
2022-12-19T01:41:41.304Z,1001.83
2022-12-19T01:42:41.301Z,1001.85
2022-12-19T01:43:41.395Z,1001.84
2022-12-19T01:44:41.338Z,1001.88
2022-12-19T01:45:45.885Z,1001.89
2022-12-19T01:46:43.296Z,1001.86
2022-12-19T01:47:41.250Z,1001.85
2022-12-19T01:48:42.212Z,1001.86
2022-12-19T01:49:41.224Z,1001.84
2022-12-19T01:50:46.092Z,1001.84
2022-12-19T01:51:42.208Z,1001.85
2022-12-19T01:52:41.212Z,1001.84
2022-12-19T01:53:48.799Z,1001.85
2022-12-19T01:54:42.207Z,1001.86
2022-12-19T01:55:41.180Z,1001.82
2022-12-19T01:56:41.153Z,1001.83
2022-12-19T01:57:41.135Z,1001.82
2022-12-19T01:58:41.131Z,1001.79
2022-12-19T01:59:41.223Z,1001.73
2022-12-19T02:00:41.155Z,1001.74
2022-12-19T02:01:51.036Z,1001.73
2022-12-19T02:02:42.206Z,1001.71
2022-12-19T02:03:41.097Z,1001.70
2022-12-19T02:04:41.092Z,1001.65
2022-12-19T02:05:41.089Z,1001.71
2022-12-19T02:06:41.075Z,1001.73
2022-12-19T02:07:41.076Z,1001.65
2022-12-19T02:08:41.071Z,1001.70
2022-12-19T02:09:41.049Z,1001.62
2022-12-19T02:10:41.038Z,1001.61
2022-12-19T02:11:41.053Z,1001.61
2022-12-19T02:12:41.028Z,1001.61
2022-12-19T02:13:41.048Z,1001.70
2022-12-19T02:14:41.010Z,1001.63
2022-12-19T02:15:41.108Z,1001.61
2022-12-19T02:16:41.008Z,1001.60
2022-12-19T02:17:40.991Z,1001.53
2022-12-19T02:18:40.997Z,1001.59
2022-12-19T02:19:41.705Z,1001.55
2022-12-19T02:20:40.985Z,1001.60
2022-12-19T02:21:40.992Z,1001.55
2022-12-19T02:22:40.996Z,1001.50
2022-12-19T02:23:40.952Z,1001.47
2022-12-19T02:24:41.217Z,1001.51
2022-12-19T02:25:40.942Z,1001.55
2022-12-19T02:26:40.941Z,1001.45
2022-12-19T02:27:40.943Z,1001.42
2022-12-19T02:28:40.927Z,1001.41
2022-12-19T02:29:40.924Z,1001.39
2022-12-19T02:30:40.895Z,1001.36
2022-12-19T02:31:41.043Z,1001.31
2022-12-19T02:32:40.889Z,1001.37
2022-12-19T02:33:40.873Z,1001.34
2022-12-19T02:34:44.394Z,1001.35
2022-12-19T02:35:41.857Z,1001.37
2022-12-19T02:36:42.640Z,1001.44
2022-12-19T02:37:40.848Z,1001.40
2022-12-19T02:38:40.871Z,1001.38
2022-12-19T02:39:41.687Z,1001.37
2022-12-19T02:40:40.832Z,1001.38
2022-12-19T02:41:41.705Z,1001.37
2022-12-19T02:42:40.821Z,1001.34
2022-12-19T02:43:40.804Z,1001.27
2022-12-19T02:44:40.800Z,1001.31
2022-12-19T02:45:40.848Z,1001.30
2022-12-19T02:46:40.782Z,1001.29
2022-12-19T02:47:40.884Z,1001.32
2022-12-19T02:48:40.781Z,1001.32
2022-12-19T02:49:40.791Z,1001.32
2022-12-19T02:50:40.788Z,1001.35
2022-12-19T02:51:40.741Z,1001.32
2022-12-19T02:52:40.737Z,1001.29
2022-12-19T02:53:40.733Z,1001.26
2022-12-19T02:54:44.830Z,1001.30
2022-12-19T02:55:40.737Z,1001.35
2022-12-19T02:56:40.709Z,1001.33
2022-12-19T02:57:40.722Z,1001.34
2022-12-19T02:58:40.692Z,1001.31
2022-12-19T02:59:40.708Z,1001.29
2022-12-19T03:00:40.689Z,1001.27
2022-12-19T03:01:40.778Z,1001.23
2022-12-19T03:02:40.835Z,1001.22
2022-12-19T03:03:40.836Z,1001.22
2022-12-19T03:04:40.676Z,1001.21
2022-12-19T03:05:40.641Z,1001.21
2022-12-19T03:06:40.642Z,1001.22
2022-12-19T03:08:47.489Z,1001.26
2022-12-19T03:09:47.490Z,1001.22
2022-12-19T03:10:48.339Z,1001.15
2022-12-19T03:11:49.434Z,1001.13
2022-12-19T03:12:48.572Z,1001.15
2022-12-19T03:13:48.549Z,1001.12
2022-12-19T03:14:48.548Z,1001.12
2022-12-19T03:15:48.544Z,1001.07
2022-12-19T03:16:48.568Z,1001.12
2022-12-19T03:17:48.526Z,1001.17
2022-12-19T03:18:48.600Z,1001.13
2022-12-19T03:19:48.495Z,1001.12
2022-12-19T03:20:49.430Z,1001.19
2022-12-19T03:21:48.533Z,1001.17
2022-12-19T03:22:48.487Z,1001.19
2022-12-19T03:23:48.499Z,1001.21
2022-12-19T03:24:48.469Z,1001.17
2022-12-19T03:25:48.490Z,1001.13
2022-12-19T03:26:48.456Z,1001.11
2022-12-19T03:27:48.458Z,1001.09
2022-12-19T03:28:49.440Z,1001.09
2022-12-19T03:29:48.429Z,1000.97
2022-12-19T03:30:48.502Z,1001.03
2022-12-19T03:31:48.414Z,1001.04
2022-12-19T03:32:48.407Z,1001.06
2022-12-19T03:33:48.393Z,1001.06
2022-12-19T03:34:48.488Z,1001.06
2022-12-19T03:35:48.397Z,1001.06
2022-12-19T03:36:48.398Z,1001.02
2022-12-19T03:37:48.379Z,1000.97
2022-12-19T03:38:48.366Z,1000.98
2022-12-19T03:39:48.350Z,1000.94
2022-12-19T03:40:48.365Z,1000.90
2022-12-19T03:41:48.350Z,1000.87
2022-12-19T03:42:48.332Z,1000.86
2022-12-19T03:43:48.322Z,1000.81
2022-12-19T03:44:48.309Z,1000.81
2022-12-19T03:45:48.321Z,1000.80
2022-12-19T03:46:48.301Z,1000.78
2022-12-19T03:47:48.313Z,1000.79
2022-12-19T03:48:48.287Z,1000.78
2022-12-19T03:49:48.276Z,1000.74
2022-12-19T03:50:48.365Z,1000.79
2022-12-19T03:51:48.266Z,1000.76
2022-12-19T03:52:49.249Z,1000.75
2022-12-19T03:53:48.261Z,1000.77
2022-12-19T03:54:48.243Z,1000.72
2022-12-19T03:55:48.944Z,1000.76
2022-12-19T03:56:48.218Z,1000.72
2022-12-19T03:57:48.212Z,1000.70
2022-12-19T03:58:48.203Z,1000.73
2022-12-19T03:59:48.206Z,1000.74
2022-12-19T04:00:48.201Z,1000.75
2022-12-19T04:01:48.313Z,1000.73
2022-12-19T04:02:48.176Z,1000.72
2022-12-19T04:03:48.187Z,1000.65
2022-12-19T04:04:48.167Z,1000.65
2022-12-19T04:05:48.155Z,1000.59
2022-12-19T04:06:48.254Z,1000.53
2022-12-19T04:07:48.143Z,1000.49
2022-12-19T04:08:49.132Z,1000.52
2022-12-19T04:09:48.136Z,1000.50
2022-12-19T04:10:48.123Z,1000.48
2022-12-19T04:11:48.112Z,1000.44
2022-12-19T04:12:48.117Z,1000.38
2022-12-19T04:13:48.093Z,1000.43
2022-12-19T04:14:48.091Z,1000.41
2022-12-19T04:15:48.113Z,1000.41
2022-12-19T04:16:48.073Z,1000.37
2022-12-19T04:17:48.065Z,1000.47
2022-12-19T04:18:48.076Z,1000.42
2022-12-19T04:19:48.052Z,1000.37
2022-12-19T04:20:48.047Z,1000.37
2022-12-19T04:21:48.027Z,1000.34
2022-12-19T04:22:49.129Z,1000.36
2022-12-19T04:23:48.026Z,1000.37
2022-12-19T04:24:49.008Z,1000.37
2022-12-19T04:25:48.880Z,1000.40
2022-12-19T04:26:48.876Z,1000.40
2022-12-19T04:27:47.985Z,1000.46
2022-12-19T04:28:48.998Z,1000.53
2022-12-19T04:29:47.980Z,1000.50
2022-12-19T04:30:47.999Z,1000.48
2022-12-19T04:31:47.961Z,1000.50
2022-12-19T04:32:47.968Z,1000.49
2022-12-19T04:33:47.938Z,1000.52
2022-12-19T04:34:47.933Z,1000.52
2022-12-19T04:35:47.939Z,1000.50
2022-12-19T04:36:47.923Z,1000.48
2022-12-19T04:37:50.422Z,1000.49
2022-12-19T04:38:49.076Z,1000.45
2022-12-19T04:39:47.903Z,1000.45
2022-12-19T04:40:47.895Z,1000.38
2022-12-19T04:41:47.875Z,1000.43
2022-12-19T04:42:47.860Z,1000.35
2022-12-19T04:43:48.884Z,1000.34
2022-12-19T04:44:47.859Z,1000.34
2022-12-19T04:45:49.707Z,1000.31
2022-12-19T04:46:47.873Z,1000.31
2022-12-19T04:47:47.835Z,1000.30
2022-12-19T04:48:47.837Z,1000.27
2022-12-19T04:49:47.812Z,1000.30
2022-12-19T04:50:47.814Z,1000.21
2022-12-19T04:51:47.805Z,1000.14
2022-12-19T04:52:47.806Z,1000.14
2022-12-19T04:53:47.784Z,1000.08
2022-12-19T04:54:47.892Z,1000.08
2022-12-19T04:55:47.768Z,1000.07
2022-12-19T04:56:47.760Z,1000.03
2022-12-19T04:57:47.771Z,1000.10
2022-12-19T04:58:47.743Z,1000.09
2022-12-19T04:59:47.747Z,1000.11
2022-12-19T05:00:47.734Z,1000.14
2022-12-19T05:01:47.823Z,1000.16
2022-12-19T05:02:48.603Z,1000.08
2022-12-19T05:03:52.712Z,1000.06
2022-12-19T05:04:50.455Z,1000.00
2022-12-19T05:05:47.696Z,1000.02
2022-12-19T05:06:47.685Z,1000.00
2022-12-19T05:07:47.692Z,1000.00
2022-12-19T05:08:47.697Z,1000.04
2022-12-19T05:09:47.660Z,1000.03
2022-12-19T05:10:47.751Z,1000.04
2022-12-19T05:11:47.657Z,1000.00
2022-12-19T05:12:48.666Z,999.94
2022-12-19T05:13:47.645Z,999.94
2022-12-19T05:14:47.617Z,999.93
2022-12-19T05:15:47.637Z,999.92
2022-12-19T05:16:47.612Z,999.98
2022-12-19T05:17:47.601Z,999.89
2022-12-19T05:18:47.596Z,999.87
2022-12-19T05:19:47.587Z,999.91
2022-12-19T05:20:47.571Z,999.87
2022-12-19T05:21:47.565Z,999.88
2022-12-19T05:22:47.558Z,999.88
2022-12-19T05:23:47.580Z,999.95
2022-12-19T05:24:47.561Z,999.90
2022-12-19T05:25:47.536Z,999.85
2022-12-19T05:26:47.629Z,999.84
2022-12-19T05:27:47.528Z,999.75
2022-12-19T05:28:47.513Z,999.79
2022-12-19T05:29:47.520Z,999.79
2022-12-19T05:30:52.060Z,999.81
2022-12-19T05:31:49.523Z,999.80
2022-12-19T05:32:47.498Z,999.82
2022-12-19T05:33:47.477Z,999.84
2022-12-19T05:34:47.480Z,999.86
2022-12-19T05:35:47.496Z,999.76
2022-12-19T05:36:47.459Z,999.88
2022-12-19T05:37:47.447Z,999.81
2022-12-19T05:38:47.497Z,999.80
2022-12-19T05:39:47.438Z,999.78
2022-12-19T05:40:47.423Z,999.79
2022-12-19T05:41:49.195Z,999.79
2022-12-19T05:42:48.517Z,999.79
2022-12-19T05:43:47.399Z,999.82
2022-12-19T05:44:47.409Z,999.84
2022-12-19T05:45:47.398Z,999.90
2022-12-19T05:46:47.409Z,999.88
2022-12-19T05:47:47.375Z,999.86
2022-12-19T05:48:47.369Z,999.84
2022-12-19T05:49:47.382Z,999.81
2022-12-19T05:50:47.348Z,999.85
2022-12-19T05:51:47.373Z,999.89
2022-12-19T05:52:47.335Z,999.84
2022-12-19T05:53:47.324Z,999.88
2022-12-19T05:54:47.313Z,999.89
2022-12-19T05:55:47.319Z,999.92
2022-12-19T05:56:47.332Z,999.97
2022-12-19T05:57:47.296Z,999.94
2022-12-19T05:58:47.315Z,999.90
2022-12-19T05:59:47.273Z,999.95
2022-12-19T06:00:47.270Z,999.85
2022-12-19T06:01:47.333Z,999.87
2022-12-19T06:02:48.055Z,999.89
2022-12-19T06:03:47.342Z,999.88
2022-12-19T06:04:47.239Z,999.86
2022-12-19T06:05:47.225Z,999.82
2022-12-19T06:06:47.217Z,999.81
2022-12-19T06:07:47.210Z,999.89
2022-12-19T06:08:47.415Z,999.92
2022-12-19T06:09:47.201Z,999.96
2022-12-19T06:10:47.189Z,1000.00
2022-12-19T06:11:47.199Z,999.97
2022-12-19T06:12:47.167Z,999.92
2022-12-19T06:13:47.174Z,999.94
2022-12-19T06:14:48.049Z,999.92
2022-12-19T06:15:47.186Z,999.95
2022-12-19T06:16:47.143Z,999.94
2022-12-19T06:17:47.973Z,999.90
2022-12-19T06:18:47.126Z,999.98
2022-12-19T06:19:47.109Z,999.91
2022-12-19T06:20:47.113Z,999.90
2022-12-19T06:21:48.486Z,999.88
2022-12-19T06:22:48.086Z,999.88
2022-12-19T06:23:47.093Z,999.88
2022-12-19T06:24:47.087Z,999.75
2022-12-19T06:25:47.070Z,999.77
2022-12-19T06:26:47.103Z,999.79
2022-12-19T06:27:47.062Z,999.76
2022-12-19T06:28:47.108Z,999.69
2022-12-19T06:29:47.054Z,999.73
2022-12-19T06:30:47.131Z,999.76
2022-12-19T06:31:47.094Z,999.78
2022-12-19T06:32:47.007Z,999.75
2022-12-19T06:33:47.024Z,999.78
2022-12-19T06:35:03.827Z,999.77
2022-12-19T06:35:48.984Z,999.75
2022-12-19T06:36:46.980Z,999.78
2022-12-19T06:37:46.969Z,999.74
2022-12-19T06:38:46.973Z,999.75
2022-12-19T06:39:47.955Z,999.70
2022-12-19T06:40:46.942Z,999.70
2022-12-19T06:41:46.947Z,999.72
2022-12-19T06:42:46.917Z,999.66
2022-12-19T06:43:50.536Z,999.69
2022-12-19T06:44:48.912Z,999.73
2022-12-19T06:45:47.913Z,999.71
2022-12-19T06:46:47.022Z,999.67
2022-12-19T06:47:46.882Z,999.71
2022-12-19T06:48:47.883Z,999.74
2022-12-19T06:49:47.382Z,999.71
2022-12-19T06:50:46.864Z,999.74
2022-12-19T06:51:46.842Z,999.71
2022-12-19T06:52:46.839Z,999.65
2022-12-19T06:53:46.847Z,999.67
2022-12-19T06:54:46.834Z,999.68
2022-12-19T06:55:46.827Z,999.75
2022-12-19T06:56:46.825Z,999.76
2022-12-19T06:57:46.803Z,999.76
2022-12-19T06:58:46.840Z,999.78
2022-12-19T06:59:46.806Z,999.81
2022-12-19T07:00:46.835Z,999.76
2022-12-19T07:01:46.870Z,999.75
2022-12-19T07:02:46.985Z,999.83
2022-12-19T07:03:46.779Z,999.85
2022-12-19T07:04:46.742Z,999.78
2022-12-19T07:05:47.373Z,999.86
2022-12-19T21:26:54.373Z,997.61
2022-12-19T21:27:50.138Z,997.65
2022-12-19T21:28:49.144Z,997.64
2022-12-19T21:29:49.121Z,997.64
2022-12-19T21:30:49.113Z,997.63
2022-12-19T21:31:50.294Z,997.58
2022-12-19T21:32:50.185Z,997.59
2022-12-19T21:33:50.206Z,997.64
2022-12-19T21:34:50.175Z,997.60
2022-12-19T21:35:50.178Z,997.57
2022-12-19T21:36:50.158Z,997.64
2022-12-19T21:37:50.256Z,997.63
2022-12-19T21:38:51.000Z,997.58
2022-12-19T21:39:50.127Z,997.61
2022-12-19T21:40:50.122Z,997.55
2022-12-19T21:41:50.116Z,997.62
2022-12-19T21:42:50.117Z,997.56
2022-12-19T21:43:50.106Z,997.60
2022-12-19T21:44:50.103Z,997.67
2022-12-19T21:45:50.082Z,997.61
2022-12-19T21:46:56.073Z,997.63
2022-12-19T21:47:50.061Z,997.60
2022-12-19T21:48:50.054Z,997.62
2022-12-19T21:49:50.128Z,997.64
2022-12-19T21:50:51.079Z,997.58
2022-12-19T21:51:50.048Z,997.59
2022-12-19T21:52:55.628Z,997.68
2022-12-19T21:53:52.045Z,997.65
2022-12-19T21:54:50.044Z,997.68
2022-12-19T21:55:50.021Z,997.65
2022-12-19T21:56:49.993Z,997.68
2022-12-19T21:57:50.519Z,997.63
2022-12-19T21:58:49.993Z,997.62
2022-12-19T21:59:49.995Z,997.64
